Time;durP1;ratioP1;P1;durP2;ratioP2;P2;SDS_P1;SDS_P2;PMS_P1;PMS_P2;Temp;Humidity;BMP_temperature;BMP_pressure;BME280_temperature;BME280_humidity;BME280_pressure;Samples;Min_cycle;Max_cycle;Signal;HPM_P1;HPM_P2
2023/09/08 00:02:17;;;;;;;15.17;9.50;;;;;;;15.41;100.00;101072.70;1482547;87;21959;-81
2023/09/08 00:04:43;;;;;;;11.23;8.23;;;;;;;15.42;100.00;101073.05;1462668;88;21301;-81
2023/09/08 00:07:09;;;;;;;11.60;8.87;;;;;;;15.43;100.00;101073.88;1477514;88;22373;-81
2023/09/08 00:09:35;;;;;;;15.00;8.97;;;;;;;15.44;100.00;101074.20;1472106;87;21323;-81
2023/09/08 00:12:01;;;;;;;20.43;9.43;;;;;;;15.43;100.00;101073.88;1470315;88;21375;-81
2023/09/08 00:14:27;;;;;;;13.23;7.87;;;;;;;15.44;100.00;101073.70;1481624;88;21434;-81
2023/09/08 00:16:54;;;;;;;16.47;8.77;;;;;;;15.44;100.00;101079.55;1472430;87;21552;-81
2023/09/08 00:19:21;;;;;;;11.77;8.30;;;;;;;15.41;100.00;101078.03;1476042;88;21353;-81
2023/09/08 00:21:47;;;;;;;11.00;9.13;;;;;;;15.41;100.00;101086.54;1469839;88;22402;-81
2023/09/08 00:24:13;;;;;;;13.80;8.20;;;;;;;15.36;100.00;101083.02;1464685;88;22395;-81
2023/09/08 00:26:40;;;;;;;13.97;8.50;;;;;;;15.29;100.00;101080.17;1472947;88;21538;-81
2023/09/08 00:29:06;;;;;;;10.40;7.77;;;;;;;15.24;100.00;101078.48;1474280;88;21338;-81
2023/09/08 00:31:32;;;;;;;11.73;8.10;;;;;;;15.25;100.00;101076.17;1462696;88;21359;-81
2023/09/08 00:33:59;;;;;;;13.43;7.90;;;;;;;15.27;100.00;101076.00;1483481;88;22365;-79
2023/09/08 00:36:26;;;;;;;12.87;8.13;;;;;;;15.22;100.00;101073.84;1476813;88;22352;-81
2023/09/08 00:39:29;;;;;;;16.53;10.10;;;;;;;15.23;100.00;101075.49;1482895;88;21323;-81
2023/09/08 00:41:56;;;;;;;11.80;8.37;;;;;;;15.24;100.00;101081.16;1475712;88;21251;-81
2023/09/08 00:44:23;;;;;;;18.40;9.30;;;;;;;15.22;100.00;101076.97;1463944;88;21419;-80
2023/09/08 00:46:49;;;;;;;16.40;9.27;;;;;;;15.20;100.00;101084.32;1471984;87;22367;-80
2023/09/08 00:49:16;;;;;;;13.17;8.43;;;;;;;15.20;100.00;101082.98;1477897;87;22277;-81
2023/09/08 00:51:43;;;;;;;14.27;8.20;;;;;;;15.19;100.00;101075.49;1474180;88;21353;-81
2023/09/08 00:54:09;;;;;;;14.87;8.13;;;;;;;15.18;100.00;101071.14;1472670;87;22421;-78
2023/09/08 00:56:38;;;;;;;13.60;8.63;;;;;;;15.15;100.00;101066.12;1474042;88;21360;-78
2023/09/08 00:59:06;;;;;;;14.83;9.90;;;;;;;15.12;100.00;101072.62;1470853;87;22270;-79
2023/09/08 01:01:34;;;;;;;13.47;8.83;;;;;;;15.12;100.00;101068.62;1477483;87;21421;-80
2023/09/08 01:04:02;;;;;;;13.27;8.40;;;;;;;15.15;100.00;101070.63;1469218;87;21538;-80
2023/09/08 01:06:30;;;;;;;13.20;8.23;;;;;;;15.14;100.00;101056.98;1474034;88;21361;-79
2023/09/08 01:08:56;;;;;;;17.37;9.47;;;;;;;15.16;100.00;101066.45;1470719;87;21508;-80
2023/09/08 01:11:22;;;;;;;17.53;10.20;;;;;;;15.17;100.00;101058.81;1472285;88;21330;-79
2023/09/08 01:13:48;;;;;;;15.13;9.57;;;;;;;15.17;100.00;101058.81;1472609;87;21568;-78
2023/09/08 01:16:15;;;;;;;14.03;9.53;;;;;;;15.14;100.00;101056.48;1482483;87;21375;-78
2023/09/08 01:18:41;;;;;;;11.43;8.40;;;;;;;15.08;100.00;101057.13;1476608;87;21536;-77
2023/09/08 01:21:37;;;;;;;22.03;10.00;;;;;;;15.02;100.00;101055.11;1474445;87;21360;-78
2023/09/08 01:24:31;;;;;;;12.30;7.77;;;;;;;14.99;100.00;101054.07;1475316;87;21515;-77
2023/09/08 01:26:58;;;;;;;14.33;8.73;;;;;;;14.93;100.00;101049.38;1473868;88;21464;-80
2023/09/08 01:29:25;;;;;;;12.70;8.17;;;;;;;14.90;100.00;101054.53;1469449;88;22379;-80
2023/09/08 01:31:52;;;;;;;15.67;9.27;;;;;;;14.86;100.00;101051.87;1475187;88;21404;-80
2023/09/08 01:34:19;;;;;;;13.93;9.13;;;;;;;14.81;100.00;101055.00;1469701;87;21647;-79
2023/09/08 01:36:46;;;;;;;13.50;8.07;;;;;;;14.78;100.00;101051.33;1472664;88;21368;-78
2023/09/08 01:39:12;;;;;;;18.00;8.33;;;;;;;14.77;100.00;101055.00;1475976;87;21596;-79
2023/09/08 01:41:38;;;;;;;18.67;9.00;;;;;;;14.73;100.00;101053.66;1478249;88;21331;-80
2023/09/08 01:44:10;;;;;;;16.63;9.80;;;;;;;14.72;100.00;101053.80;1470732;87;22388;-80
2023/09/08 01:46:34;;;;;;;18.67;10.13;;;;;;;14.71;100.00;101062.80;1476819;87;21412;-80
2023/09/08 01:49:01;;;;;;;15.40;9.30;;;;;;;14.66;100.00;101057.44;1484997;87;22297;-80
2023/09/08 01:51:27;;;;;;;14.17;9.40;;;;;;;14.63;100.00;101063.58;1494878;88;22300;-80
2023/09/08 01:53:53;;;;;;;15.43;8.87;;;;;;;14.61;100.00;101059.73;1472201;88;22247;-80
2023/09/08 01:56:19;;;;;;;17.17;8.57;;;;;;;14.60;100.00;101062.06;1483273;87;21456;-79
2023/09/08 01:58:45;;;;;;;13.30;8.77;;;;;;;14.59;100.00;101056.91;1472008;88;21374;-80
2023/09/08 02:01:11;;;;;;;16.13;9.13;;;;;;;14.61;100.00;101061.56;1484070;88;21479;-80
2023/09/08 02:03:37;;;;;;;18.37;9.33;;;;;;;14.61;100.00;101058.40;1486666;88;21323;-80
2023/09/08 02:06:04;;;;;;;13.17;7.97;;;;;;;14.64;100.00;101048.79;1466484;88;21420;-80
2023/09/08 02:08:30;;;;;;;15.80;8.93;;;;;;;14.68;100.00;101054.63;1481889;87;21626;-80
2023/09/08 02:10:56;;;;;;;15.20;9.27;;;;;;;14.67;100.00;101055.59;1482860;88;21368;-79
2023/09/08 02:13:22;;;;;;;13.80;8.73;;;;;;;14.70;100.00;101059.27;1480662;87;21612;-80
2023/09/08 02:15:48;;;;;;;15.17;8.73;;;;;;;14.69;100.00;101050.95;1484546;88;21367;-80
2023/09/08 02:18:14;;;;;;;17.00;9.30;;;;;;;14.71;100.00;101052.97;1484322;88;21426;-80
2023/09/08 02:20:40;;;;;;;13.90;7.50;;;;;;;14.74;100.00;101049.98;1493252;88;21339;-80
2023/09/08 02:23:07;;;;;;;13.13;9.60;;;;;;;14.74;100.00;101055.31;1474794;88;21367;-80
2023/09/08 02:25:33;;;;;;;14.83;8.97;;;;;;;14.72;100.00;101054.63;1475192;88;21533;-81
2023/09/08 02:27:59;;;;;;;15.07;10.33;;;;;;;14.69;100.00;101048.30;1480450;88;21419;-80
2023/09/08 02:30:25;;;;;;;13.23;8.60;;;;;;;14.68;100.00;101054.63;1475103;88;22247;-79
2023/09/08 02:32:52;;;;;;;14.53;8.60;;;;;;;14.64;100.00;101051.45;1478862;88;21374;-78
2023/09/08 02:35:18;;;;;;;13.20;9.40;;;;;;;14.60;100.00;101047.42;1469322;88;21484;-78
2023/09/08 02:37:44;;;;;;;15.33;7.37;;;;;;;14.57;100.00;101048.23;1486861;87;21397;-78
2023/09/08 02:40:11;;;;;;;13.90;8.20;;;;;;;14.56;100.00;101049.24;1479242;88;21330;-79
2023/09/08 02:42:37;;;;;;;11.73;7.90;;;;;;;14.54;100.00;101049.89;1482783;88;21676;-77
2023/09/08 02:45:04;;;;;;;11.60;7.97;;;;;;;14.53;100.00;101049.53;1483799;88;21382;-78
2023/09/08 02:47:30;;;;;;;15.83;8.73;;;;;;;14.51;100.00;101046.18;1482154;88;21331;-78
2023/09/08 02:49:57;;;;;;;15.30;8.40;;;;;;;14.47;100.00;101039.48;1476370;87;21441;-78
2023/09/08 02:52:23;;;;;;;15.47;8.43;;;;;;;14.45;100.00;101047.64;1472810;88;21324;-78
2023/09/08 02:54:49;;;;;;;16.87;7.97;;;;;;;14.41;100.00;101044.94;1466979;88;21605;-78
2023/09/08 02:57:15;;;;;;;16.37;9.37;;;;;;;14.38;100.00;101047.42;1468763;87;21331;-78
2023/09/08 02:59:41;;;;;;;15.80;8.70;;;;;;;14.36;100.00;101047.27;1467917;88;22374;-78
2023/09/08 03:02:08;;;;;;;12.27;8.40;;;;;;;14.31;100.00;101042.40;1478234;87;21367;-79
2023/09/08 03:04:34;;;;;;;11.20;7.57;;;;;;;14.31;100.00;101042.40;1468694;88;21419;-80
2023/09/08 03:07:00;;;;;;;17.93;8.27;;;;;;;14.30;100.00;101041.20;1472779;87;21530;-79
2023/09/08 03:09:26;;;;;;;12.37;8.10;;;;;;;14.29;100.00;101044.38;1474424;87;22249;-80
2023/09/08 03:11:52;;;;;;;15.27;8.03;;;;;;;14.30;100.00;101040.73;1468136;87;21502;-80
2023/09/08 03:14:18;;;;;;;13.30;8.73;;;;;;;14.31;100.00;101041.06;1474154;87;21478;-80
2023/09/08 03:16:44;;;;;;;15.23;8.40;;;;;;;14.33;100.00;101043.08;1466275;88;21368;-79
2023/09/08 03:19:10;;;;;;;12.60;7.73;;;;;;;14.32;100.00;101041.39;1469293;87;22671;-79
2023/09/08 03:21:37;;;;;;;11.90;7.73;;;;;;;14.31;100.00;101040.23;1475842;87;21383;-80
2023/09/08 03:24:03;;;;;;;13.97;8.90;;;;;;;14.30;100.00;101039.88;1471423;87;21633;-80
2023/09/08 03:26:30;;;;;;;17.60;8.73;;;;;;;14.28;100.00;101036.55;1474879;87;22846;-80
2023/09/08 03:28:56;;;;;;;16.23;9.53;;;;;;;14.22;100.00;101038.02;1473470;88;21513;-80
2023/09/08 03:31:22;;;;;;;12.07;7.80;;;;;;;14.17;100.00;101036.31;1479764;88;21419;-80
2023/09/08 03:33:48;;;;;;;12.90;8.23;;;;;;;14.14;100.00;101037.45;1471399;88;21553;-80
2023/09/08 03:36:14;;;;;;;13.07;8.17;;;;;;;14.13;100.00;101038.95;1470085;88;22284;-79
2023/09/08 03:38:41;;;;;;;14.23;8.73;;;;;;;14.11;100.00;101044.92;1479161;87;21531;-79
2023/09/08 03:41:07;;;;;;;14.37;9.30;;;;;;;14.09;100.00;101046.89;1472651;87;21441;-78
2023/09/08 03:43:33;;;;;;;11.77;7.87;;;;;;;14.06;100.00;101047.21;1479583;87;22381;-78
2023/09/08 03:45:59;;;;;;;12.43;9.57;;;;;;;14.02;100.00;101049.36;1472409;87;21404;-78
2023/09/08 03:48:25;;;;;;;18.63;8.90;;;;;;;13.99;100.00;101049.17;1468773;88;21523;-78
2023/09/08 03:50:52;;;;;;;14.37;8.27;;;;;;;13.97;100.00;101056.46;1474971;87;21705;-78
2023/09/08 03:53:18;;;;;;;14.13;8.23;;;;;;;13.96;100.00;101053.47;1482733;87;21418;-79
2023/09/08 03:55:45;;;;;;;13.43;8.53;;;;;;;13.96;100.00;101053.97;1486007;87;22269;-78
2023/09/08 03:58:11;;;;;;;10.23;7.90;;;;;;;13.96;100.00;101052.64;1478714;87;21536;-79
2023/09/08 04:00:37;;;;;;;11.13;8.47;;;;;;;13.97;100.00;101054.30;1486300;87;21492;-78
2023/09/08 04:03:04;;;;;;;12.70;7.30;;;;;;;13.97;100.00;101059.63;1486442;87;22454;-78
2023/09/08 04:05:30;;;;;;;13.30;8.37;;;;;;;13.95;100.00;101053.14;1482555;87;21464;-77
2023/09/08 04:07:56;;;;;;;13.77;8.37;;;;;;;13.94;100.00;101053.28;1482588;87;21545;-79
2023/09/08 04:10:22;;;;;;;13.13;9.00;;;;;;;13.93;100.00;101059.60;1493261;88;21397;-78
2023/09/08 04:12:49;;;;;;;14.70;8.50;;;;;;;13.93;100.00;101059.10;1474466;88;22305;-79
2023/09/08 04:15:15;;;;;;;10.30;7.53;;;;;;;13.96;100.00;101065.94;1494743;88;21517;-80
2023/09/08 04:17:41;;;;;;;12.77;7.87;;;;;;;13.95;100.00;101062.45;1478124;88;21426;-79
2023/09/08 04:20:09;;;;;;;16.90;8.93;;;;;;;13.96;100.00;101065.44;1481107;87;21418;-79
2023/09/08 04:22:35;;;;;;;15.30;8.03;;;;;;;13.99;100.00;101069.12;1480353;88;21382;-79
2023/09/08 04:25:02;;;;;;;15.70;9.30;;;;;;;14.00;100.00;101068.13;1484242;87;21381;-79
2023/09/08 04:27:28;;;;;;;12.90;8.33;;;;;;;13.98;100.00;101067.47;1488079;87;21308;-79
2023/09/08 04:29:54;;;;;;;18.07;9.53;;;;;;;13.99;100.00;101061.64;1487062;87;21500;-79
2023/09/08 04:32:21;;;;;;;13.57;8.07;;;;;;;14.04;100.00;101063.82;1488354;87;21441;-79
2023/09/08 04:34:48;;;;;;;15.47;7.73;;;;;;;14.08;100.00;101067.86;1478282;87;21669;-79
2023/09/08 04:37:15;;;;;;;11.80;7.97;;;;;;;14.13;100.00;101068.23;1484637;87;21300;-79
2023/09/08 04:39:41;;;;;;;12.63;8.40;;;;;;;14.19;100.00;101062.29;1481616;87;21573;-79
2023/09/08 04:42:07;;;;;;;12.93;7.93;;;;;;;14.25;100.00;101063.00;1476987;88;21404;-78
2023/09/08 04:44:34;;;;;;;14.83;8.00;;;;;;;14.30;100.00;101060.70;1484588;87;22224;-81
2023/09/08 04:47:00;;;;;;;11.70;8.50;;;;;;;14.35;100.00;101058.89;1478337;87;21448;-79
2023/09/08 04:49:26;;;;;;;16.07;8.20;;;;;;;14.41;100.00;101063.11;1485528;87;21537;-80
2023/09/08 04:51:53;;;;;;;15.20;9.90;;;;;;;14.47;100.00;101060.28;1481058;88;21404;-80
2023/09/08 04:54:20;;;;;;;14.20;7.90;;;;;;;14.51;100.00;101065.66;1482439;88;21500;-80
2023/09/08 04:56:46;;;;;;;15.47;8.13;;;;;;;14.54;100.00;101079.19;1473643;88;21418;-80
2023/09/08 04:59:12;;;;;;;17.03;8.53;;;;;;;14.59;100.00;101074.23;1482575;88;21536;-79
2023/09/08 05:01:39;;;;;;;15.13;8.23;;;;;;;14.66;100.00;101075.25;1483865;87;21353;-80
2023/09/08 05:04:06;;;;;;;15.27;7.93;;;;;;;14.72;100.00;101075.95;1476965;88;21374;-80
2023/09/08 05:06:32;;;;;;;14.27;8.77;;;;;;;14.78;100.00;101077.14;1490868;87;21338;-80
2023/09/08 05:09:00;;;;;;;12.57;8.63;;;;;;;14.85;100.00;101076.36;1484094;87;22246;-80
2023/09/08 05:11:26;;;;;;;14.47;8.73;;;;;;;14.93;100.00;101078.70;1475212;87;21390;-80
2023/09/08 05:13:52;;;;;;;14.63;8.27;;;;;;;15.00;100.00;101073.09;1476837;88;21873;-78
2023/09/08 05:16:25;;;;;;;16.60;9.23;;;;;;;15.05;100.00;101073.45;1489541;87;21433;-78
2023/09/08 05:18:46;;;;;;;11.50;8.23;;;;;;;15.15;100.00;101076.80;1479598;87;21463;-78
2023/09/08 05:21:14;;;;;;;13.57;8.30;;;;;;;15.21;100.00;101075.31;1474730;87;21566;-79
2023/09/08 05:23:40;;;;;;;12.83;7.90;;;;;;;15.27;100.00;101074.66;1487211;88;21367;-79
2023/09/08 05:26:06;;;;;;;13.80;8.20;;;;;;;15.37;100.00;101079.88;1487218;88;21456;-79
2023/09/08 05:28:33;;;;;;;11.63;8.03;;;;;;;15.47;100.00;101083.22;1483978;87;21279;-79
2023/09/08 05:30:59;;;;;;;11.60;7.97;;;;;;;15.58;100.00;101081.57;1483061;88;21522;-79
2023/09/08 05:33:25;;;;;;;15.10;9.13;;;;;;;15.65;100.00;101086.60;1482707;87;21397;-79
2023/09/08 05:35:51;;;;;;;16.70;8.27;;;;;;;15.74;100.00;101088.30;1485196;88;21659;-80
2023/09/08 05:38:17;;;;;;;11.93;8.27;;;;;;;15.85;100.00;101086.30;1477304;88;21353;-76
2023/09/08 05:40:43;;;;;;;14.33;8.23;;;;;;;15.88;100.00;101095.30;1492924;87;21445;-80
2023/09/08 05:43:09;;;;;;;11.63;7.00;;;;;;;15.98;100.00;101100.82;1477723;87;21420;-80
2023/09/08 05:45:36;;;;;;;12.47;7.83;;;;;;;16.06;100.00;101094.66;1482203;88;21359;-81
2023/09/08 05:48:04;;;;;;;11.43;7.70;;;;;;;16.17;100.00;101101.00;1487484;88;21374;-81
2023/09/08 05:50:30;;;;;;;13.50;7.47;;;;;;;16.31;100.00;101097.30;1475061;87;22392;-80
2023/09/08 05:52:56;;;;;;;12.40;7.83;;;;;;;16.44;100.00;101104.30;1472669;87;21679;-79
2023/09/08 05:55:23;;;;;;;11.77;8.20;;;;;;;16.52;100.00;101100.28;1478594;88;21397;-81
2023/09/08 05:57:49;;;;;;;13.87;8.83;;;;;;;16.61;100.00;101099.77;1470256;88;21500;-81
2023/09/08 06:00:16;;;;;;;11.10;8.10;;;;;;;16.74;100.00;101100.55;1474286;87;21346;-82
2023/09/08 06:02:42;;;;;;;16.10;7.73;;;;;;;16.83;100.00;101092.87;1476938;87;21339;-82
2023/09/08 06:05:09;;;;;;;12.63;7.10;;;;;;;16.96;100.00;101098.52;1480540;88;21482;-81
2023/09/08 06:07:35;;;;;;;13.13;6.80;;;;;;;17.10;100.00;101099.13;1480879;87;22343;-80
2023/09/08 06:10:01;;;;;;;12.10;7.77;;;;;;;17.25;100.00;101093.03;1469552;87;21337;-80
2023/09/08 06:12:27;;;;;;;13.37;7.93;;;;;;;17.37;100.00;101091.63;1469847;87;21508;-80
2023/09/08 06:14:54;;;;;;;11.83;7.67;;;;;;;17.47;100.00;101096.27;1471462;87;22366;-82
2023/09/08 06:17:20;;;;;;;18.83;9.27;;;;;;;17.51;100.00;101097.56;1473420;88;21331;-81
2023/09/08 06:19:46;;;;;;;11.50;7.33;;;;;;;17.63;100.00;101103.34;1472605;88;21293;-83
2023/09/08 06:22:12;;;;;;;11.80;7.43;;;;;;;17.71;100.00;101106.48;1474795;88;21346;-86
2023/09/08 06:24:39;;;;;;;15.83;8.30;;;;;;;17.82;100.00;101111.45;1471766;88;21988;-84
2023/09/08 06:27:06;;;;;;;10.40;7.47;;;;;;;17.94;100.00;101105.17;1477254;88;21442;-86
2023/09/08 06:29:32;;;;;;;11.22;8.28;;;;;;;18.08;100.00;101107.58;1475333;87;21563;-83
2023/09/08 06:31:59;;;;;;;10.60;7.70;;;;;;;18.17;100.00;101102.47;1466204;88;21404;-85
2023/09/08 06:34:25;;;;;;;19.98;8.10;;;;;;;18.31;100.00;101111.05;1469978;87;21611;-85
2023/09/08 06:36:51;;;;;;;19.02;7.95;;;;;;;18.43;100.00;101101.55;1471576;88;21368;-85
2023/09/08 06:39:17;;;;;;;12.93;7.45;;;;;;;18.58;100.00;101100.73;1472205;87;21487;-82
2023/09/08 06:41:43;;;;;;;11.85;6.70;;;;;;;18.67;100.00;101094.26;1469986;88;21526;-83
2023/09/08 06:44:09;;;;;;;11.63;7.60;;;;;;;18.79;100.00;101094.17;1470897;88;21346;-85
2023/09/08 06:46:36;;;;;;;14.90;8.00;;;;;;;18.90;100.00;101094.20;1556248;88;21324;-81
2023/09/08 06:49:02;;;;;;;15.75;7.72;;;;;;;19.00;100.00;101096.61;1398731;88;21257;-84
2023/09/08 06:51:28;;;;;;;12.82;7.50;;;;;;;19.10;100.00;101091.77;1409794;88;22322;-84
2023/09/08 06:54:00;;;;;;;15.90;7.20;;;;;;;19.20;100.00;101086.13;1413496;87;21309;-85
2023/09/08 06:56:26;;;;;;;12.28;8.40;;;;;;;19.28;100.00;101092.22;1570643;88;21220;-84
2023/09/08 06:58:52;;;;;;;11.88;6.85;;;;;;;19.36;100.00;101097.48;1407388;87;21316;-84
2023/09/08 07:01:19;;;;;;;22.62;7.40;;;;;;;19.44;100.00;101089.80;1407299;87;21227;-79
2023/09/08 07:03:45;;;;;;;8.93;6.20;;;;;;;19.56;100.00;101091.47;1407164;88;21264;-81
2023/09/08 07:06:11;;;;;;;9.00;6.17;;;;;;;19.74;100.00;101094.60;1407090;88;21221;-81
2023/09/08 07:08:37;;;;;;;15.85;6.95;;;;;;;19.99;100.00;101088.30;1396461;88;21466;-81
2023/09/08 07:11:03;;;;;;;10.65;6.20;;;;;;;20.18;100.00;101092.20;1407299;88;21249;-84
2023/09/08 07:13:30;;;;;;;10.85;6.72;;;;;;;20.34;100.00;101087.06;1407427;88;21235;-80
2023/09/08 07:15:56;;;;;;;8.53;6.47;;;;;;;20.41;100.00;101091.95;1419122;88;22396;-80
2023/09/08 07:18:22;;;;;;;14.18;6.37;;;;;;;20.52;100.00;101094.63;1396809;88;21338;-81
2023/09/08 07:20:51;;;;;;;10.38;6.42;;;;;;;20.64;100.00;101094.41;1407433;87;21382;-83
2023/09/08 07:23:18;;;;;;;11.12;6.17;;;;;;;20.78;100.00;101091.81;1403728;88;21331;-81
2023/09/08 07:25:49;;;;;;;10.70;5.80;;;;;;;20.99;100.00;101084.97;1405926;88;21279;-84
2023/09/08 07:28:16;;;;;;;15.78;6.58;;;;;;;21.18;100.00;101089.61;1411522;88;22115;-82
2023/09/08 07:30:43;;;;;;;12.50;6.42;;;;;;;21.37;100.00;101079.12;1569964;88;21327;-87
2023/09/08 07:33:09;;;;;;;13.22;6.83;;;;;;;21.50;100.00;101080.52;1406452;87;21323;-86
2023/09/08 07:35:39;;;;;;;9.53;6.00;;;;;;;21.75;100.00;101089.36;1407058;88;22322;-87
2023/09/08 07:38:06;;;;;;;9.68;5.60;;;;;;;21.89;100.00;101086.98;1395116;88;21257;-83
2023/09/08 07:40:34;;;;;;;15.10;6.05;;;;;;;22.02;100.00;101090.23;1469411;88;22468;-86
2023/09/08 07:43:00;;;;;;;9.43;5.58;;;;;;;22.15;100.00;101088.03;1484408;87;21507;-82
2023/09/08 07:45:26;;;;;;;10.53;7.12;;;;;;;22.22;100.00;101087.56;1480062;87;21345;-81
2023/09/08 07:47:52;;;;;;;9.75;6.20;;;;;;;22.29;100.00;101089.72;1483184;87;21389;-80
2023/09/08 07:50:23;;;;;;;13.62;6.42;;;;;;;22.34;100.00;101088.58;1482127;88;21548;-83
2023/09/08 07:52:52;;;;;;;13.30;6.62;;;;;;;22.38;100.00;101087.11;1470207;88;21478;-84
2023/09/08 07:55:19;;;;;;;7.37;6.00;;;;;;;22.50;100.00;101083.28;1471639;88;22455;-84
2023/09/08 08:04:48;;;;;;;9.20;6.00;;;;;;;22.61;100.00;101088.53;1559156;88;21339;-83
2023/09/08 08:07:14;;;;;;;6.10;4.72;;;;;;;22.73;100.00;101081.47;1398524;87;21309;-85
2023/09/08 08:09:41;;;;;;;7.97;5.55;;;;;;;22.89;100.00;101083.67;1398523;88;21405;-86
2023/09/08 08:12:07;;;;;;;7.83;5.12;;;;;;;23.04;100.00;101074.52;1398816;87;21258;-84
2023/09/08 08:14:33;;;;;;;12.45;5.60;;;;;;;23.18;100.00;101077.47;1398365;87;21509;-84
2023/09/08 08:16:59;;;;;;;9.33;5.53;;;;;;;23.27;100.00;101076.16;1397995;89;21294;-83
2023/09/08 08:19:26;;;;;;;12.03;6.22;;;;;;;23.44;100.00;101073.80;1398856;87;22160;-85
2023/09/08 08:21:52;;;;;;;11.20;5.85;;;;;;;23.43;100.00;101074.32;1514784;88;21380;-85
2023/09/08 08:24:19;;;;;;;11.03;5.37;;;;;;;23.57;100.00;101067.50;1398560;87;22123;-83
2023/09/08 08:26:45;;;;;;;11.93;5.80;;;;;;;23.61;100.00;101072.75;1397918;88;21458;-83
2023/09/08 08:29:11;;;;;;;12.28;6.12;;;;;;;23.63;100.00;101072.02;1404669;87;21258;-85
2023/09/08 08:31:37;;;;;;;11.35;5.58;;;;;;;23.75;100.00;101068.13;1398734;88;21369;-83
2023/09/08 08:34:04;;;;;;;6.83;5.30;;;;;;;23.88;100.00;101065.33;1399546;87;21347;-84
2023/09/08 08:36:31;;;;;;;7.30;5.20;;;;;;;24.06;100.00;101067.26;1397813;88;22387;-84
2023/09/08 08:38:57;;;;;;;10.98;5.42;;;;;;;24.22;100.00;101069.38;1398582;87;21258;-85
2023/09/08 08:41:23;;;;;;;8.75;6.08;;;;;;;24.32;100.00;101071.59;1404600;87;21427;-84
2023/09/08 08:43:51;;;;;;;10.65;5.33;;;;;;;24.49;100.00;101077.29;1398238;87;21257;-84
2023/09/08 08:46:18;;;;;;;10.60;5.15;;;;;;;24.63;100.00;101073.39;1396657;88;21243;-82
2023/09/08 08:48:46;;;;;;;6.92;5.33;;;;;;;24.71;100.00;101073.06;1397743;87;21325;-82
2023/09/08 08:51:22;;;;;;;7.50;5.30;;;;;;;24.87;100.00;101065.41;1409182;87;21560;-81
2023/09/08 08:53:49;;;;;;;10.03;5.22;;;;;;;25.01;100.00;101068.26;1493334;88;21566;-83
2023/09/08 08:56:17;;;;;;;12.00;5.33;;;;;;;25.21;100.00;101062.08;1471297;88;21856;-81
2023/09/08 08:58:45;;;;;;;7.78;4.85;;;;;;;25.36;100.00;101063.02;1395538;88;21398;-83
2023/09/08 09:01:12;;;;;;;13.13;5.55;;;;;;;25.31;100.00;101052.58;1397726;87;22064;-81
2023/09/08 09:03:40;;;;;;;9.30;3.52;;;;;;;25.37;100.00;101046.23;1397545;88;21372;-81
2023/09/08 09:06:06;;;;;;;5.40;3.98;;;;;;;25.49;100.00;101052.53;1451670;88;21382;-84
2023/09/08 09:08:33;;;;;;;4.90;4.33;;;;;;;25.68;100.00;101055.16;1471593;87;21537;-82
2023/09/08 09:11:00;;;;;;;6.22;4.00;;;;;;;25.76;100.00;101054.83;1397852;87;21243;-83
2023/09/08 09:13:26;;;;;;;9.18;3.92;;;;;;;25.91;100.00;101051.69;1398529;88;21228;-83
2023/09/08 09:15:54;;;;;;;7.42;3.75;;;;;;;26.07;100.00;101048.30;1400006;88;21381;-82
2023/09/08 09:18:20;;;;;;;8.25;4.03;;;;;;;26.22;100.00;101051.35;1389571;89;21397;-82
2023/09/08 09:20:57;;;;;;;6.85;4.40;;;;;;;26.31;99.88;101043.68;1398735;87;22338;-82
2023/09/08 09:23:34;;;;;;;6.45;4.75;;;;;;;26.40;99.48;101048.22;1559306;87;21258;-80
2023/09/08 09:26:06;;;;;;;9.68;4.45;;;;;;;26.44;99.91;101047.52;1397034;87;21236;-80
2023/09/08 09:28:32;;;;;;;6.90;3.90;;;;;;;26.60;100.00;101042.44;1553673;87;21309;-82
2023/09/08 09:30:59;;;;;;;7.40;3.75;;;;;;;26.73;99.40;101038.93;1559319;87;21228;-83
2023/09/08 09:33:25;;;;;;;7.75;4.03;;;;;;;26.83;98.98;101034.77;1398410;87;21241;-83
2023/09/08 09:35:54;;;;;;;8.70;3.83;;;;;;;26.96;99.93;101040.75;1398675;88;21376;-82
2023/09/08 09:38:27;;;;;;;8.75;3.60;;;;;;;27.05;98.52;101040.37;1396094;87;21545;-81
2023/09/08 09:40:53;;;;;;;8.03;4.40;;;;;;;27.15;97.41;101037.83;1400498;87;21287;-82
2023/09/08 09:43:22;;;;;;;7.83;3.85;;;;;;;27.21;96.37;101033.63;1550830;88;21347;-82
2023/09/08 09:45:49;;;;;;;19.62;5.08;;;;;;;27.26;96.25;101039.70;1395049;87;21214;-84
2023/09/08 09:48:15;;;;;;;8.98;3.90;;;;;;;27.35;96.46;101034.16;1398328;87;21251;-83
2023/09/08 09:50:45;;;;;;;7.95;4.05;;;;;;;27.48;86.92;101029.47;1398131;88;21229;-82
2023/09/08 09:53:16;;;;;;;7.20;4.47;;;;;;;27.45;71.65;101027.56;1530827;88;21413;-81
2023/09/08 09:55:46;;;;;;;6.12;3.40;;;;;;;27.51;73.44;101030.37;1449208;87;21272;-81
2023/09/08 09:58:14;;;;;;;5.83;3.85;;;;;;;27.52;64.59;101027.39;1391898;87;22088;-82
2023/09/08 10:00:41;;;;;;;6.20;3.95;;;;;;;27.54;63.52;101021.18;1396164;88;21457;-84
2023/09/08 10:03:08;;;;;;;10.05;3.83;;;;;;;27.45;63.51;101022.12;1457141;87;22469;-81
2023/09/08 10:05:34;;;;;;;6.65;4.10;;;;;;;27.51;63.39;101012.16;1554389;88;21516;-82
2023/09/08 10:08:01;;;;;;;4.90;3.25;;;;;;;27.66;64.83;101010.23;1397307;87;21206;-83
2023/09/08 10:10:30;;;;;;;11.43;4.03;;;;;;;27.75;64.01;101008.73;1397134;87;22242;-81
2023/09/08 10:13:02;;;;;;;5.90;3.33;;;;;;;27.84;62.56;101015.43;1403469;87;22196;-79
2023/09/08 10:15:30;;;;;;;7.55;3.62;;;;;;;27.89;62.88;101008.72;1385860;89;21434;-82
2023/09/08 10:17:58;;;;;;;4.37;3.25;;;;;;;28.01;62.51;101010.52;1394074;87;21368;-84
2023/09/08 10:20:26;;;;;;;11.80;3.30;;;;;;;28.08;53.13;101009.80;1395494;88;21324;-82
2023/09/08 10:23:09;;;;;;;4.67;3.45;;;;;;;28.12;48.91;101015.86;1395190;87;22131;-82
2023/09/08 10:25:43;;;;;;;6.92;3.33;;;;;;;28.20;48.66;101011.90;1395282;89;22138;-83
2023/09/08 10:28:11;;;;;;;6.65;3.58;;;;;;;28.28;48.81;101013.34;1558153;87;22215;-82
2023/09/08 10:30:38;;;;;;;4.47;3.30;;;;;;;28.31;48.85;101008.75;1555100;88;21280;-82
2023/09/08 10:33:06;;;;;;;6.90;4.42;;;;;;;28.38;48.57;101005.88;1396242;87;21325;-82
2023/09/08 10:35:32;;;;;;;7.78;3.60;;;;;;;28.43;46.16;101003.25;1388556;89;21464;-81
2023/09/08 10:38:27;;;;;;;9.10;3.72;;;;;;;28.44;42.70;101004.34;1552492;87;21405;-79
2023/09/08 10:41:11;;;;;;;3.72;2.98;;;;;;;28.53;43.25;101003.37;1395557;88;22203;-80
2023/09/08 10:43:38;;;;;;;5.47;3.65;;;;;;;28.57;42.37;101001.80;1458918;90;21274;-80
2023/09/08 10:46:13;;;;;;;9.60;3.77;;;;;;;28.56;41.92;101002.86;1393342;88;21301;-81
2023/09/08 10:48:49;;;;;;;3.50;3.20;;;;;;;28.53;40.85;100997.38;1544260;87;22197;-81
2023/09/08 10:51:18;;;;;;;8.35;3.58;;;;;;;28.57;40.16;101000.44;1554607;87;22146;-82
2023/09/08 10:57:24;;;;;;;5.78;3.35;;;;;;;28.67;40.67;100990.20;1402278;102;22049;-82
2023/09/08 10:59:56;;;;;;;6.42;3.30;;;;;;;28.74;41.19;100989.45;1409360;87;21212;-80
2023/09/08 11:07:13;;;;;;;6.12;3.45;;;;;;;28.77;40.52;100981.61;1547700;87;21250;-80
2023/09/08 11:09:39;;;;;;;8.93;3.47;;;;;;;28.81;41.17;100978.38;1454091;88;22153;-81
2023/09/08 11:12:08;;;;;;;4.47;3.25;;;;;;;28.91;41.44;100975.20;1341590;93;21325;-82
2023/09/08 11:14:35;;;;;;;7.57;3.70;;;;;;;28.95;41.22;100982.34;1486765;88;21398;-81
2023/09/08 11:17:03;;;;;;;7.53;3.40;;;;;;;29.01;40.78;100977.23;1476493;88;21839;-82
2023/09/08 11:19:49;;;;;;;22.25;3.60;;;;;;;29.07;40.10;100976.22;1428261;91;21383;-81
2023/09/08 11:22:18;;;;;;;10.65;4.00;;;;;;;29.17;40.65;100970.86;1485033;88;21474;-82
2023/09/08 11:24:45;;;;;;;8.15;3.50;;;;;;;29.21;39.73;100970.64;1461636;88;22714;-80
2023/09/08 11:27:12;;;;;;;5.12;3.30;;;;;;;29.30;39.76;100967.45;1444719;88;21442;-81
2023/09/08 11:29:40;;;;;;;5.45;3.45;;;;;;;29.32;39.91;100969.35;1483275;88;21623;-82